Time;durP1;ratioP1;P1;durP2;ratioP2;P2;SDS_P1;SDS_P2;PMS_P1;PMS_P2;Temp;Humidity;BMP_temperature;BMP_pressure;BME280_temperature;BME280_humidity;BME280_pressure;Samples;Min_cycle;Max_cycle;Signal;HPM_P1;HPM_P2
2022/01/31 00:01:01;;;;;;;44.88;40.65;;;;;;;1.88;100.00;100629.03;5073978;28;20117;-79
2022/01/31 00:03:30;;;;;;;47.40;43.97;;;;;;;1.87;100.00;100632.59;5073415;28;20053;-79
2022/01/31 00:05:57;;;;;;;44.03;40.78;;;;;;;1.88;100.00;100629.03;5074471;28;20049;-79
2022/01/31 00:08:25;;;;;;;54.38;40.55;;;;;;;1.91;100.00;100632.16;5076180;28;20052;-80
2022/01/31 00:10:52;;;;;;;44.05;40.17;;;;;;;2.10;100.00;100627.72;5077597;28;20082;-79
2022/01/31 00:13:23;;;;;;;44.00;40.45;;;;;;;1.94;100.00;100633.66;5074029;28;20052;-79
2022/01/31 00:15:54;;;;;;;43.85;40.47;;;;;;;2.07;100.00;100631.47;5074703;28;20091;-79
2022/01/31 00:18:21;;;;;;;43.80;40.55;;;;;;;1.99;100.00;100631.38;5075506;28;20067;-79
2022/01/31 00:20:48;;;;;;;44.97;42.58;;;;;;;2.77;100.00;100634.00;5073574;28;20526;-79
2022/01/31 00:23:15;;;;;;;43.58;40.88;;;;;;;2.72;100.00;100629.25;5069172;28;20545;-80
2022/01/31 00:25:43;;;;;;;41.20;38.47;;;;;;;2.64;100.00;100629.19;5077069;28;20110;-79
2022/01/31 00:28:10;;;;;;;39.75;37.13;;;;;;;2.33;100.00;100639.34;5076612;28;20110;-79
2022/01/31 00:30:37;;;;;;;47.53;43.47;;;;;;;2.23;100.00;100628.13;5074404;28;20129;-81
2022/01/31 00:33:04;;;;;;;41.95;39.08;;;;;;;2.54;100.00;100625.84;5073786;28;20049;-80
2022/01/31 00:35:31;;;;;;;43.17;39.67;;;;;;;2.23;100.00;100621.06;5072771;28;20063;-80
2022/01/31 00:37:58;;;;;;;47.45;43.70;;;;;;;2.30;100.00;100623.94;5082135;28;20430;-80
2022/01/31 00:40:25;;;;;;;44.15;40.55;;;;;;;2.27;100.00;100619.81;5075373;28;20055;-81
2022/01/31 00:42:53;;;;;;;42.85;39.63;;;;;;;2.65;100.00;100622.16;5073305;28;20139;-80
2022/01/31 00:45:25;;;;;;;43.15;39.95;;;;;;;2.80;100.00;100620.56;5073749;28;20109;-79
2022/01/31 00:48:00;;;;;;;44.23;41.10;;;;;;;2.74;100.00;100621.19;5073117;28;20453;-80
2022/01/31 00:50:27;;;;;;;44.20;41.05;;;;;;;2.66;100.00;100613.28;5074292;28;20338;-79
2022/01/31 00:52:55;;;;;;;44.08;40.55;;;;;;;2.61;100.00;100612.97;5076483;28;20052;-79
2022/01/31 00:55:22;;;;;;;44.63;40.80;;;;;;;2.81;100.00;100614.34;5077882;28;20052;-80
2022/01/31 00:57:50;;;;;;;40.47;38.05;;;;;;;3.18;100.00;100611.38;5074034;28;20048;-79
2022/01/31 01:00:18;;;;;;;43.13;40.42;;;;;;;3.35;100.00;100614.03;5073535;28;20048;-81
2022/01/31 01:02:46;;;;;;;44.58;41.58;;;;;;;3.07;100.00;100613.47;5073266;28;20060;-80
2022/01/31 01:05:13;;;;;;;42.53;39.83;;;;;;;3.08;100.00;100609.84;5073392;28;20106;-80
2022/01/31 01:07:45;;;;;;;44.45;41.15;;;;;;;2.97;100.00;100614.41;5069071;28;20110;-79
2022/01/31 01:10:12;;;;;;;44.90;41.15;;;;;;;2.89;100.00;100601.25;5075010;28;20139;-79
2022/01/31 01:12:39;;;;;;;41.05;38.47;;;;;;;3.22;100.00;100606.63;5073838;28;20553;-80
2022/01/31 01:15:07;;;;;;;43.30;39.78;;;;;;;2.68;100.00;100611.34;5073196;28;20056;-80
2022/01/31 01:17:35;;;;;;;46.50;42.55;;;;;;;2.69;100.00;100603.34;5072967;28;20048;-81
2022/01/31 01:20:02;;;;;;;44.80;42.42;;;;;;;3.27;100.00;100603.50;5072937;28;20439;-79
2022/01/31 01:22:29;;;;;;;42.90;39.92;;;;;;;2.49;100.00;100604.53;5077572;28;20048;-79
2022/01/31 01:24:56;;;;;;;44.42;41.90;;;;;;;3.33;100.00;100608.09;5073845;28;20044;-81
2022/01/31 01:27:23;;;;;;;45.47;42.90;;;;;;;2.98;100.00;100589.00;5077853;28;20144;-79
2022/01/31 01:29:50;;;;;;;43.53;40.08;;;;;;;2.52;100.00;100602.41;5077456;28;20048;-82
2022/01/31 01:32:18;;;;;;;42.63;40.10;;;;;;;3.20;100.00;100595.44;5076470;28;20044;-79
2022/01/31 01:34:46;;;;;;;45.65;42.85;;;;;;;2.79;100.00;100605.81;5074803;28;20121;-81
2022/01/31 01:37:13;;;;;;;43.83;40.55;;;;;;;2.57;100.00;100601.13;5076298;28;20451;-81
2022/01/31 01:39:41;;;;;;;43.22;40.85;;;;;;;3.26;100.00;100594.81;5078874;28;20052;-80
2022/01/31 01:42:08;;;;;;;47.08;43.60;;;;;;;2.56;100.00;100621.28;5075629;28;20095;-80
2022/01/31 01:44:46;;;;;;;44.88;41.65;;;;;;;3.28;100.00;100600.72;5076427;28;20048;-79
2022/01/31 01:47:16;;;;;;;41.30;38.78;;;;;;;2.58;100.00;100602.78;5076146;28;20049;-80
2022/01/31 01:49:43;;;;;;;42.90;40.20;;;;;;;2.32;100.00;100608.03;5077547;28;20135;-81
2022/01/31 01:52:11;;;;;;;41.38;39.10;;;;;;;2.27;100.00;100613.75;5076336;28;20056;-79
2022/01/31 01:54:39;;;;;;;43.85;39.78;;;;;;;2.08;100.00;100611.31;5074537;28;20106;-80
2022/01/31 01:57:06;;;;;;;46.38;42.88;;;;;;;2.25;100.00;100613.06;5076169;28;20049;-79
2022/01/31 01:59:35;;;;;;;46.28;42.90;;;;;;;2.03;100.00;100609.16;5077533;28;20538;-82
2022/01/31 02:02:02;;;;;;;42.40;39.25;;;;;;;2.61;100.00;100612.97;5077179;28;20403;-79
2022/01/31 02:04:29;;;;;;;41.72;38.80;;;;;;;1.68;100.00;100607.41;5077046;28;20392;-80
2022/01/31 02:06:56;;;;;;;41.90;39.00;;;;;;;1.82;100.00;100609.50;5076041;28;20053;-80
2022/01/31 02:09:27;;;;;;;41.55;38.78;;;;;;;1.67;100.00;100611.81;5077229;28;20454;-80
2022/01/31 02:11:54;;;;;;;40.35;38.08;;;;;;;2.73;100.00;100609.91;5075338;28;20052;-80
2022/01/31 02:14:21;;;;;;;43.90;40.55;;;;;;;1.93;100.00;100618.91;5076919;28;20461;-79
2022/01/31 02:16:49;;;;;;;42.42;39.13;;;;;;;1.83;100.00;100605.91;5075914;28;20455;-80
2022/01/31 02:19:17;;;;;;;39.97;37.47;;;;;;;1.75;100.00;100604.03;5078635;28;20538;-79
2022/01/31 02:21:46;;;;;;;42.72;40.28;;;;;;;2.20;100.00;100610.09;5075819;28;20052;-77
2022/01/31 02:24:14;;;;;;;41.60;39.53;;;;;;;2.41;100.00;100621.03;5074902;28;20113;-78
2022/01/31 02:26:40;;;;;;;38.92;36.42;;;;;;;1.42;100.00;100618.63;5075449;28;20056;-80
2022/01/31 02:29:11;;;;;;;40.50;38.58;;;;;;;1.58;100.00;100615.34;5076639;28;20060;-79
2022/01/31 02:31:38;;;;;;;41.13;38.63;;;;;;;1.74;100.00;100607.63;5075728;28;20053;-79
2022/01/31 02:34:04;;;;;;;42.13;39.17;;;;;;;1.18;100.00;100626.22;5076247;28;20125;-80
2022/01/31 02:36:31;;;;;;;41.20;38.33;;;;;;;1.23;100.00;100618.75;5075185;28;20554;-81
2022/01/31 02:38:59;;;;;;;42.45;40.00;;;;;;;1.95;100.00;100617.78;5079126;28;20397;-80
2022/01/31 02:41:27;;;;;;;40.55;38.03;;;;;;;1.31;100.00;100614.44;5075050;28;20048;-79
2022/01/31 02:43:55;;;;;;;41.33;39.03;;;;;;;1.22;100.00;100617.13;5078221;28;20044;-80
2022/01/31 02:46:26;;;;;;;42.33;39.95;;;;;;;2.50;100.00;100616.66;5075256;28;20049;-79
2022/01/31 02:48:55;;;;;;;39.65;37.60;;;;;;;2.34;100.00;100620.00;5075537;28;20049;-79
2022/01/31 02:51:24;;;;;;;40.25;37.67;;;;;;;1.00;100.00;100616.56;5074769;28;20056;-80
2022/01/31 02:53:51;;;;;;;41.03;38.53;;;;;;;1.48;100.00;100630.28;5074232;28;20058;-80
2022/01/31 02:56:20;;;;;;;42.15;39.13;;;;;;;1.21;100.00;100633.75;5074912;28;20076;-80
2022/01/31 02:58:46;;;;;;;40.45;37.67;;;;;;;1.66;100.00;100620.63;5079970;28;20048;-80
2022/01/31 03:01:14;;;;;;;40.53;38.03;;;;;;;1.17;100.00;100620.16;5186417;22;20053;-79
2022/01/31 03:03:41;;;;;;;40.55;38.65;;;;;;;2.11;100.00;100616.25;5047294;28;20187;-79
2022/01/31 03:06:08;;;;;;;41.97;38.70;;;;;;;0.98;100.00;100615.88;5044533;28;20119;-79
2022/01/31 03:08:35;;;;;;;40.97;38.83;;;;;;;1.31;100.00;100624.09;5046693;28;20381;-79
2022/01/31 03:11:01;;;;;;;45.33;42.13;;;;;;;0.98;100.00;100638.59;5042344;28;20053;-80
2022/01/31 03:13:30;;;;;;;42.88;39.75;;;;;;;1.58;100.00;100628.44;5043225;28;20099;-80
2022/01/31 03:15:57;;;;;;;40.42;38.08;;;;;;;1.32;100.00;100638.81;5046417;28;20493;-80
2022/01/31 03:18:24;;;;;;;40.92;37.80;;;;;;;0.80;100.00;100630.69;5049689;28;20374;-79
2022/01/31 03:20:50;;;;;;;43.38;40.28;;;;;;;0.61;100.00;100629.81;5045369;28;20049;-82
2022/01/31 03:23:18;;;;;;;41.83;38.88;;;;;;;0.73;100.00;100640.06;5044460;28;20049;-80
2022/01/31 03:25:45;;;;;;;39.90;36.80;;;;;;;0.58;100.00;100632.69;5044003;28;20071;-79
2022/01/31 03:28:14;;;;;;;41.75;38.35;;;;;;;0.50;100.00;100637.00;5048642;28;20057;-79
2022/01/31 03:30:42;;;;;;;39.17;36.63;;;;;;;0.93;100.00;100633.78;5047158;28;20041;-80
2022/01/31 03:33:09;;;;;;;38.75;36.00;;;;;;;1.01;100.00;100633.06;5042083;28;20049;-80
2022/01/31 03:35:35;;;;;;;39.42;37.05;;;;;;;0.45;100.00;100638.25;5042030;28;20076;-80
2022/01/31 03:38:02;;;;;;;39.63;37.00;;;;;;;0.75;100.00;100636.34;5042057;28;20114;-79
2022/01/31 03:40:29;;;;;;;43.92;41.30;;;;;;;0.71;100.00;100639.41;5045880;28;20049;-80
2022/01/31 03:42:56;;;;;;;40.30;37.72;;;;;;;0.69;100.00;100644.75;5045320;28;20466;-79
2022/01/31 03:45:23;;;;;;;39.95;37.47;;;;;;;1.14;100.00;100628.31;5045477;28;20049;-80
2022/01/31 03:47:51;;;;;;;39.83;37.30;;;;;;;0.77;100.00;100636.22;5038202;28;20048;-80
2022/01/31 03:50:19;;;;;;;40.15;37.10;;;;;;;1.23;100.00;100635.28;5044240;28;20118;-81
2022/01/31 03:52:48;;;;;;;40.17;37.25;;;;;;;1.00;100.00;100634.88;5043573;28;20049;-79
2022/01/31 03:55:15;;;;;;;43.88;41.25;;;;;;;1.26;100.00;100628.94;5044732;28;20049;-80
2022/01/31 03:57:43;;;;;;;44.55;41.42;;;;;;;1.47;100.00;100613.75;5049729;28;20060;-80
2022/01/31 04:00:12;;;;;;;40.17;36.88;;;;;;;1.18;100.00;100623.59;5034047;28;20053;-80
2022/01/31 04:02:40;;;;;;;41.65;38.35;;;;;;;1.22;100.00;100611.88;5036949;28;20068;-79
2022/01/31 04:05:09;;;;;;;45.35;42.47;;;;;;;1.21;100.00;100621.53;5047631;28;20114;-79
2022/01/31 04:07:37;;;;;;;42.03;39.17;;;;;;;0.98;100.00;100613.25;5044172;28;20057;-79
2022/01/31 04:10:04;;;;;;;41.20;38.13;;;;;;;1.93;100.00;100614.47;5049239;28;20052;-80
2022/01/31 04:12:31;;;;;;;40.53;38.03;;;;;;;1.65;100.00;100607.72;5047059;28;20119;-79
2022/01/31 04:14:58;;;;;;;41.83;39.15;;;;;;;1.79;100.00;100628.13;5046231;28;20071;-79
2022/01/31 04:17:25;;;;;;;46.58;42.78;;;;;;;1.14;100.00;100626.50;5046017;28;20127;-80
2022/01/31 04:19:52;;;;;;;42.97;39.28;;;;;;;2.26;100.00;100639.13;5049846;28;20565;-79
2022/01/31 04:22:23;;;;;;;41.35;38.80;;;;;;;2.10;100.00;100638.19;5047517;28;20081;-78
2022/01/31 04:24:54;;;;;;;42.30;39.30;;;;;;;1.45;100.00;100651.53;5039814;28;20060;-80
2022/01/31 04:27:27;;;;;;;44.38;40.40;;;;;;;1.16;100.00;100654.34;5050168;28;20048;-78
2022/01/31 04:29:54;;;;;;;44.13;41.25;;;;;;;1.54;100.00;100661.94;5046498;28;20055;-80
2022/01/31 04:32:20;;;;;;;43.40;40.35;;;;;;;1.57;100.00;100666.88;5037870;28;20108;-79
2022/01/31 04:34:47;;;;;;;39.75;36.92;;;;;;;1.97;100.00;100665.59;5044796;28;20057;-79
2022/01/31 04:37:14;;;;;;;41.60;38.35;;;;;;;1.86;100.00;100659.78;5042951;28;20481;-79
2022/01/31 04:39:42;;;;;;;43.72;40.30;;;;;;;2.25;100.00;100676.78;5042382;28;20049;-79
2022/01/31 04:42:09;;;;;;;42.42;39.83;;;;;;;2.46;100.00;100675.63;5041723;28;20041;-81
2022/01/31 04:44:36;;;;;;;47.63;42.92;;;;;;;1.35;100.00;100664.69;5041214;28;20114;-80
2022/01/31 04:47:04;;;;;;;43.95;40.88;;;;;;;2.88;100.00;100664.41;5051889;28;20081;-78
2022/01/31 04:49:33;;;;;;;43.47;40.80;;;;;;;2.31;100.00;100670.13;5034163;28;20053;-79
2022/01/31 04:52:00;;;;;;;42.25;40.08;;;;;;;1.94;100.00;100668.53;5045320;28;20068;-79
2022/01/31 04:54:27;;;;;;;43.60;39.58;;;;;;;1.23;100.00;100673.69;5047771;28;20053;-79
2022/01/31 04:56:55;;;;;;;42.70;39.65;;;;;;;1.89;100.00;100676.00;5050893;28;20049;-79
2022/01/31 04:59:22;;;;;;;47.10;43.58;;;;;;;1.18;100.00;100681.16;5052086;28;20044;-78
2022/01/31 05:01:49;;;;;;;48.97;45.03;;;;;;;1.16;100.00;100689.16;5049390;28;20061;-80
2022/01/31 05:04:16;;;;;;;48.92;44.83;;;;;;;1.44;100.00;100689.16;5051467;28;20057;-80
2022/01/31 05:06:45;;;;;;;49.08;45.95;;;;;;;1.47;100.00;100694.09;5049731;28;20110;-79
2022/01/31 05:09:12;;;;;;;49.83;46.05;;;;;;;1.30;100.00;100700.91;5054367;28;20048;-81
2022/01/31 05:11:39;;;;;;;45.15;41.75;;;;;;;1.33;100.00;100692.78;5048793;28;20107;-79
2022/01/31 05:14:07;;;;;;;45.78;41.75;;;;;;;0.97;100.00;100703.16;5051191;28;20053;-79
2022/01/31 05:16:34;;;;;;;43.15;40.15;;;;;;;1.32;100.00;100712.91;5050675;28;20049;-81
2022/01/31 05:19:01;;;;;;;44.53;40.65;;;;;;;0.95;100.00;100712.94;5051962;28;20475;-80
2022/01/31 05:21:28;;;;;;;41.83;39.17;;;;;;;1.13;100.00;100719.06;5052982;28;20044;-80
2022/01/31 05:23:55;;;;;;;44.10;41.28;;;;;;;1.33;100.00;100719.78;5054898;28;20044;-81
2022/01/31 05:26:21;;;;;;;54.45;49.50;;;;;;;0.97;100.00;100711.00;5052955;28;20182;-79
2022/01/31 05:28:48;;;;;;;47.15;43.08;;;;;;;1.01;100.00;100730.66;5054040;28;20045;-80
2022/01/31 05:31:16;;;;;;;47.35;43.70;;;;;;;1.48;100.00;100722.72;5050854;28;20056;-80
2022/01/31 05:33:43;;;;;;;44.03;40.65;;;;;;;0.85;100.00;100727.84;5051220;28;20488;-81
2022/01/31 05:36:10;;;;;;;50.20;46.83;;;;;;;1.33;100.00;100727.66;5049345;28;20456;-80
2022/01/31 05:38:39;;;;;;;45.97;43.13;;;;;;;1.83;100.00;100740.28;5047351;28;20111;-80
2022/01/31 05:41:08;;;;;;;45.03;42.17;;;;;;;2.04;100.00;100736.56;5044509;28;20060;-80
2022/01/31 05:43:35;;;;;;;53.90;49.55;;;;;;;1.79;100.00;100738.94;5049289;28;20048;-79
2022/01/31 05:46:02;;;;;;;57.20;52.35;;;;;;;1.74;100.00;100742.97;5056382;28;20044;-79
2022/01/31 05:48:30;;;;;;;51.92;48.85;;;;;;;2.67;100.00;100748.72;5050541;28;20056;-80
2022/01/31 05:50:57;;;;;;;56.70;52.10;;;;;;;1.32;100.00;100748.72;5047622;28;20072;-80
2022/01/31 05:53:26;;;;;;;43.33;39.97;;;;;;;2.57;100.00;100740.09;5052755;28;20473;-81
2022/01/31 05:55:53;;;;;;;41.63;38.72;;;;;;;0.99;100.00;100742.22;5045955;28;20053;-80
2022/01/31 05:58:19;;;;;;;43.88;40.67;;;;;;;1.16;100.00;100741.50;5049421;28;20459;-80
2022/01/31 06:00:46;;;;;;;42.78;39.45;;;;;;;1.38;100.00;100746.34;5045261;28;20106;-80
2022/01/31 06:03:13;;;;;;;43.45;39.92;;;;;;;1.49;100.00;100729.63;5049188;28;20056;-79
2022/01/31 06:05:41;;;;;;;41.10;37.97;;;;;;;1.09;100.00;100725.56;5049041;28;20118;-81
2022/01/31 06:08:09;;;;;;;45.60;41.90;;;;;;;1.13;100.00;100732.13;5050849;28;20048;-81
2022/01/31 06:10:42;;;;;;;44.05;41.30;;;;;;;1.58;100.00;100730.53;5051728;28;20106;-81
2022/01/31 06:13:08;;;;;;;47.33;42.90;;;;;;;1.12;100.00;100745.34;5054700;28;20548;-80
2022/01/31 06:15:35;;;;;;;46.28;43.05;;;;;;;1.34;100.00;100742.38;5049100;28;20049;-80
2022/01/31 06:18:02;;;;;;;44.40;40.65;;;;;;;1.51;100.00;100748.63;5050220;28;20049;-81
2022/01/31 06:20:29;;;;;;;46.75;42.55;;;;;;;1.68;100.00;100747.00;5056114;28;20134;-80
2022/01/31 06:22:57;;;;;;;46.80;43.17;;;;;;;1.77;100.00;100747.91;5042280;28;20464;-80
2022/01/31 06:25:24;;;;;;;46.42;43.10;;;;;;;1.65;100.00;100755.16;5037751;28;20049;-79
2022/01/31 06:27:51;;;;;;;46.30;43.70;;;;;;;2.31;100.00;100746.13;5047156;28;20053;-80
2022/01/31 06:30:18;;;;;;;44.97;42.15;;;;;;;2.07;100.00;100751.97;5049859;28;20044;-79
2022/01/31 06:32:45;;;;;;;46.85;43.38;;;;;;;2.15;100.00;100748.59;5054287;28;20458;-79
2022/01/31 06:35:13;;;;;;;45.85;43.15;;;;;;;2.33;100.00;100732.88;5053028;28;20100;-79
2022/01/31 06:37:40;;;;;;;44.75;41.42;;;;;;;2.22;100.00;100736.56;5045611;28;20057;-79
2022/01/31 06:40:09;;;;;;;47.10;42.90;;;;;;;2.58;100.00;100739.13;5053283;28;20476;-79
2022/01/31 06:42:35;;;;;;;48.70;45.58;;;;;;;3.07;100.00;100744.69;5043951;28;20122;-79
2022/01/31 06:45:02;;;;;;;48.25;44.53;;;;;;;2.92;100.00;100744.44;5042889;28;20049;-80
2022/01/31 06:47:29;;;;;;;46.53;43.28;;;;;;;2.76;100.00;100742.53;5056490;28;20061;-79
2022/01/31 06:49:56;;;;;;;47.58;44.55;;;;;;;2.94;100.00;100747.72;5046622;28;20045;-80
2022/01/31 06:52:24;;;;;;;48.15;45.08;;;;;;;3.16;100.00;100749.00;5052882;28;20424;-80
2022/01/31 06:54:51;;;;;;;47.10;44.15;;;;;;;2.95;100.00;100741.50;5043066;28;20398;-79
2022/01/31 06:57:23;;;;;;;45.95;42.85;;;;;;;3.26;100.00;100733.94;5049564;28;20069;-80
2022/01/31 06:59:49;;;;;;;45.03;42.40;;;;;;;3.24;100.00;100741.16;5052319;28;20057;-79
2022/01/31 07:02:16;;;;;;;45.88;42.63;;;;;;;2.96;100.00;100735.25;5056427;28;20481;-79
2022/01/31 07:04:43;;;;;;;45.20;42.53;;;;;;;2.93;100.00;100728.50;5046818;28;20049;-80
2022/01/31 07:07:09;;;;;;;50.03;45.67;;;;;;;3.28;100.00;100739.84;5051744;28;20049;-79
2022/01/31 07:09:36;;;;;;;48.45;44.85;;;;;;;3.16;100.00;100736.69;5053657;28;20052;-79
2022/01/31 07:12:08;;;;;;;50.92;46.42;;;;;;;4.62;100.00;100731.03;5041951;28;20045;-79
2022/01/31 07:14:36;;;;;;;48.15;45.08;;;;;;;3.84;100.00;100732.28;5038599;28;20397;-79
2022/01/31 07:17:05;;;;;;;52.00;48.20;;;;;;;4.20;100.00;100726.75;5054240;28;20477;-79
2022/01/31 07:19:35;;;;;;;51.38;47.75;;;;;;;3.63;100.00;100723.09;5053323;28;20049;-79
2022/01/31 07:22:04;;;;;;;52.83;47.58;;;;;;;4.00;100.00;100721.00;5054159;28;20123;-81
2022/01/31 07:24:43;;;;;;;46.92;44.00;;;;;;;4.15;100.00;100711.50;5049359;28;20049;-80
2022/01/31 07:27:10;;;;;;;50.58;46.40;;;;;;;3.79;100.00;100719.66;5046912;28;20063;-80
2022/01/31 07:29:39;;;;;;;50.58;46.70;;;;;;;4.42;100.00;100714.75;5048545;28;20078;-81
2022/01/31 07:32:09;;;;;;;47.22;43.78;;;;;;;5.60;100.00;100718.34;5052054;28;20145;-80
2022/01/31 07:34:39;;;;;;;49.40;45.50;;;;;;;4.63;100.00;100714.22;5048400;28;20115;-78
2022/01/31 07:37:06;;;;;;;52.08;47.92;;;;;;;5.13;100.00;100700.78;5051209;28;20135;-79
2022/01/31 07:39:33;;;;;;;51.05;47.20;;;;;;;5.25;100.00;100714.41;5049358;28;20541;-80
2022/01/31 07:42:00;;;;;;;47.88;44.75;;;;;;;5.03;100.00;100718.59;5054305;28;20495;-81
2022/01/31 07:44:26;;;;;;;49.10;45.10;;;;;;;4.57;100.00;100715.75;5051521;28;20497;-78
2022/01/31 07:46:54;;;;;;;49.92;46.22;;;;;;;5.31;100.00;100705.00;5053877;28;20110;-79
2022/01/31 07:49:22;;;;;;;52.58;47.10;;;;;;;5.38;100.00;100714.66;5052053;28;20075;-79
2022/01/31 07:51:49;;;;;;;48.42;45.60;;;;;;;5.39;98.47;100713.69;5050661;28;20128;-78
2022/01/31 07:54:16;;;;;;;48.40;45.42;;;;;;;5.85;96.17;100715.56;5047126;28;20122;-80
2022/01/31 07:56:43;;;;;;;49.83;46.58;;;;;;;5.79;99.87;100711.00;5051660;28;20475;-80
2022/01/31 07:59:10;;;;;;;49.63;46.40;;;;;;;5.55;97.43;100709.31;5050602;28;20414;-80
2022/01/31 08:01:37;;;;;;;50.45;46.78;;;;;;;5.96;96.72;100710.75;5050024;28;20116;-80
2022/01/31 08:04:05;;;;;;;48.85;45.92;;;;;;;6.01;95.07;100696.22;5046920;28;20080;-80
2022/01/31 08:06:33;;;;;;;51.88;48.40;;;;;;;5.95;94.09;100706.44;5047687;28;20041;-79
2022/01/31 08:09:00;;;;;;;50.65;47.85;;;;;;;5.83;96.44;100704.38;5053129;28;20049;-79
2022/01/31 08:11:32;;;;;;;48.22;45.10;;;;;;;6.19;94.23;100710.72;5046401;28;20045;-80
2022/01/31 08:14:02;;;;;;;52.10;49.03;;;;;;;5.89;92.26;100693.13;5051882;28;20068;-80
2022/01/31 08:16:29;;;;;;;54.17;50.38;;;;;;;6.03;92.73;100704.78;5054175;28;20492;-79
2022/01/31 08:18:55;;;;;;;48.80;45.90;;;;;;;6.23;92.55;100702.44;5046649;28;20045;-79
2022/01/31 08:21:24;;;;;;;48.30;45.35;;;;;;;6.02;91.63;100689.94;5052398;28;20080;-81
2022/01/31 08:23:51;;;;;;;48.40;45.70;;;;;;;6.13;92.30;100697.44;5042851;28;20443;-80
2022/01/31 08:26:21;;;;;;;49.90;46.42;;;;;;;6.49;89.28;100702.06;5051758;28;20107;-82
2022/01/31 08:28:54;;;;;;;51.40;47.55;;;;;;;6.37;85.69;100699.84;5048077;28;20067;-79
2022/01/31 08:31:24;;;;;;;49.20;45.90;;;;;;;6.73;85.46;100699.19;5052263;28;20068;-80
2022/01/31 08:34:04;;;;;;;51.38;48.33;;;;;;;6.59;88.35;100703.44;5053506;28;20131;-80
2022/01/31 08:36:34;;;;;;;50.33;47.45;;;;;;;6.39;85.52;100712.88;5050245;28;20408;-80
2022/01/31 08:39:08;;;;;;;47.28;44.97;;;;;;;7.30;83.95;100727.59;5055177;28;20076;-79
2022/01/31 08:41:35;;;;;;;49.20;46.10;;;;;;;7.27;86.66;100725.31;5056254;28;20551;-82
2022/01/31 08:44:08;;;;;;;46.92;44.13;;;;;;;7.74;83.89;100723.22;5055938;28;20041;-79
2022/01/31 08:46:39;;;;;;;46.85;43.67;;;;;;;6.67;81.94;100717.56;5060269;28;20040;-79
2022/01/31 08:49:05;;;;;;;45.63;43.00;;;;;;;6.73;85.44;100707.09;5051788;28;20078;-79
2022/01/31 08:51:34;;;;;;;54.42;50.50;;;;;;;7.52;82.20;100715.25;5053155;28;20057;-80
2022/01/31 08:54:05;;;;;;;48.75;45.38;;;;;;;7.15;82.15;100703.00;5051550;28;20053;-79
2022/01/31 08:56:35;;;;;;;47.42;44.60;;;;;;;6.82;80.25;100713.94;5053330;28;20041;-80
2022/01/31 08:59:03;;;;;;;49.17;46.05;;;;;;;6.86;80.05;100714.38;5056443;28;20045;-79
2022/01/31 09:01:30;;;;;;;50.40;47.30;;;;;;;6.91;79.70;100700.66;5057369;28;20949;-79
2022/01/31 09:04:04;;;;;;;50.28;46.92;;;;;;;7.03;76.61;100696.56;5055433;28;20481;-79
2022/01/31 09:06:32;;;;;;;48.15;45.15;;;;;;;7.65;77.50;100696.06;5054261;28;20397;-79
2022/01/31 09:09:01;;;;;;;50.95;47.67;;;;;;;6.93;77.13;100693.34;5049826;28;20054;-80
2022/01/31 09:11:29;;;;;;;50.90;47.58;;;;;;;7.54;74.15;100694.75;5048347;28;20115;-80
2022/01/31 09:13:57;;;;;;;49.65;46.53;;;;;;;8.46;75.25;100695.81;5054522;28;20041;-81
2022/01/31 09:16:23;;;;;;;51.20;47.95;;;;;;;7.49;74.61;100698.94;5060475;28;20045;-81
2022/01/31 09:18:50;;;;;;;52.42;48.20;;;;;;;7.85;73.55;100695.47;5053227;28;20139;-81
2022/01/31 09:21:19;;;;;;;49.20;46.17;;;;;;;7.38;75.92;100702.06;5053385;28;20470;-80
2022/01/31 09:23:51;;;;;;;50.03;47.13;;;;;;;7.78;76.13;100692.75;5046425;28;20053;-80
2022/01/31 09:26:23;;;;;;;52.67;49.33;;;;;;;7.58;74.13;100676.69;5053971;28;20057;-80
2022/01/31 09:28:51;;;;;;;50.15;47.50;;;;;;;7.25;75.47;100681.59;5050380;28;20127;-78
2022/01/31 09:31:19;;;;;;;49.58;46.58;;;;;;;7.82;73.81;100661.47;5056551;28;20088;-82
2022/01/31 09:33:46;;;;;;;54.65;50.80;;;;;;;8.30;71.59;100659.03;5048420;28;20045;-82
2022/01/31 09:36:13;;;;;;;56.60;53.08;;;;;;;8.61;68.80;100659.47;5044808;28;20106;-81
2022/01/31 09:38:41;;;;;;;52.85;48.95;;;;;;;8.10;69.59;100649.09;5044866;28;20489;-80
2022/01/31 09:41:11;;;;;;;50.97;47.22;;;;;;;8.49;68.57;100653.91;5041471;28;20041;-82
2022/01/31 09:44:14;;;;;;;51.55;48.45;;;;;;;8.07;72.33;100652.13;5048548;28;20045;-81
2022/01/31 09:46:48;;;;;;;53.10;50.13;;;;;;;7.90;73.59;100651.59;5049915;28;20053;-80
2022/01/31 09:49:16;;;;;;;50.28;47.28;;;;;;;8.53;70.57;100654.31;5053508;28;20044;-81
2022/01/31 09:51:43;;;;;;;53.25;50.28;;;;;;;7.79;70.32;100637.03;5050234;28;20132;-80
2022/01/31 09:54:11;;;;;;;52.88;49.33;;;;;;;8.12;68.71;100636.50;5039928;28;20057;-81
2022/01/31 09:56:40;;;;;;;52.15;48.45;;;;;;;8.80;69.88;100638.59;5047918;28;20060;-81
2022/01/31 09:59:10;;;;;;;51.40;48.03;;;;;;;8.18;69.86;100635.75;5049180;28;20048;-82
2022/01/31 10:01:42;;;;;;;54.55;51.35;;;;;;;8.56;69.65;100629.28;5055998;28;20044;-81
2022/01/31 10:04:14;;;;;;;53.95;50.75;;;;;;;9.23;64.46;100625.13;5050250;28;20091;-82
2022/01/31 10:06:43;;;;;;;47.93;45.50;;;;;;;7.90;69.86;100625.16;5041667;28;20064;-81
2022/01/31 10:09:13;;;;;;;53.28;49.78;;;;;;;8.46;66.73;100627.81;5049205;28;20131;-81
2022/01/31 10:11:46;;;;;;;56.70;53.40;;;;;;;7.83;70.75;100605.75;5045534;28;20052;-81
2022/01/31 10:17:03;;;;;;;55.42;52.00;;;;;;;9.75;63.95;100584.66;5047938;28;20105;-81
2022/01/31 10:19:30;;;;;;;56.50;53.10;;;;;;;10.03;60.65;100588.91;5047374;28;20060;-81
2022/01/31 10:21:59;;;;;;;55.08;51.65;;;;;;;8.62;60.99;100592.28;5042829;28;20119;-80
2022/01/31 10:24:27;;;;;;;49.97;47.10;;;;;;;9.31;62.21;100585.19;5046842;28;20049;-81
2022/01/31 10:26:54;;;;;;;50.47;47.58;;;;;;;8.76;64.76;100568.50;5045631;28;20527;-81
2022/01/31 10:29:25;;;;;;;53.92;50.65;;;;;;;9.15;62.83;100567.84;5042454;28;20050;-81
2022/01/31 10:31:58;;;;;;;52.05;48.83;;;;;;;8.47;62.62;100560.66;5047988;28;20488;-81
2022/01/31 10:34:27;;;;;;;52.15;49.08;;;;;;;10.74;59.13;100558.97;5047356;28;20118;-80
2022/01/31 10:36:54;;;;;;;55.22;50.95;;;;;;;10.63;58.57;100549.00;5038758;28;20052;-80
2022/01/31 10:45:24;;;;;;;54.42;51.22;;;;;;;9.48;58.40;100549.34;5037815;28;20118;-81
2022/01/31 10:53:18;;;;;;;53.92;50.45;;;;;;;9.27;56.99;100542.38;5035352;28;20048;-83
2022/01/31 10:55:54;;;;;;;54.75;51.50;;;;;;;9.36;56.17;100532.41;5048760;28;20110;-80
2022/01/31 10:58:21;;;;;;;48.97;45.75;;;;;;;10.39;55.39;100511.50;5042923;28;20460;-81
2022/01/31 11:00:51;;;;;;;52.88;49.42;;;;;;;11.16;54.92;100519.50;5045864;28;20045;-81
2022/01/31 11:03:30;;;;;;;54.20;50.80;;;;;;;10.86;51.85;100519.25;5047238;28;20472;-82
2022/01/31 11:05:57;;;;;;;52.67;49.60;;;;;;;9.74;52.63;100519.38;5038878;28;20115;-82
2022/01/31 11:08:24;;;;;;;53.05;49.90;;;;;;;10.07;56.49;100498.06;5044304;28;20053;-80
2022/01/31 11:10:58;;;;;;;53.58;50.55;;;;;;;11.83;51.51;100502.00;5037610;28;20440;-82
2022/01/31 11:13:26;;;;;;;54.63;51.42;;;;;;;11.93;51.03;100500.72;5045899;28;20038;-81
2022/01/31 11:15:55;;;;;;;47.63;45.08;;;;;;;10.80;53.52;100486.38;5054109;28;20052;-84
2022/01/31 11:18:23;;;;;;;53.40;50.13;;;;;;;10.21;55.67;100495.41;5048482;28;20119;-81
2022/01/31 11:20:53;;;;;;;54.63;50.35;;;;;;;9.88;55.26;100509.53;5043257;28;20083;-81
2022/01/31 11:23:22;;;;;;;50.58;47.85;;;;;;;9.71;56.90;100500.38;5044662;28;20046;-82
2022/01/31 11:25:54;;;;;;;54.20;50.75;;;;;;;10.60;51.73;100507.75;5044029;28;20413;-83
2022/01/31 11:28:23;;;;;;;51.67;48.47;;;;;;;10.40;51.45;100497.19;5034581;28;20057;-82
2022/01/31 11:30:51;;;;;;;51.30;48.30;;;;;;;9.47;52.32;100494.69;5040643;28;20362;-81